Time;durP1;ratioP1;P1;durP2;ratioP2;P2;SDS_P1;SDS_P2;PMS_P1;PMS_P2;Temp;Humidity;BMP_temperature;BMP_pressure;BME280_temperature;BME280_humidity;BME280_pressure;Samples;Min_cycle;Max_cycle;Signal;HPM_P1;HPM_P2
2021/08/15 00:01:35;;;;;;;6.65;4.10;;;25.90;47.60;;;;;;4213789;28;20045;-58
2021/08/15 00:03:38;;;;;;;7.88;4.13;;;25.90;47.50;;;;;;4213803;28;20054;-58
2021/08/15 00:05:40;;;;;;;9.07;4.20;;;25.90;47.40;;;;;;4204379;28;20055;-58
2021/08/15 00:07:42;;;;;;;6.50;4.30;;;25.90;47.40;;;;;;4205644;28;20040;-58
2021/08/15 00:09:44;;;;;;;6.15;4.05;;;25.90;47.30;;;;;;4214717;28;20048;-58
2021/08/15 00:11:47;;;;;;;6.50;4.65;;;25.90;47.30;;;;;;4212918;28;20041;-58
2021/08/15 00:13:49;;;;;;;7.37;3.67;;;25.80;47.30;;;;;;4212055;28;20045;-58
2021/08/15 00:15:51;;;;;;;8.32;3.78;;;25.90;47.40;;;;;;4214140;28;20048;-57
2021/08/15 00:17:53;;;;;;;8.68;4.13;;;25.90;47.30;;;;;;4198482;28;20067;-57
2021/08/15 00:19:56;;;;;;;6.70;4.03;;;25.90;47.40;;;;;;4213207;28;20083;-58
2021/08/15 00:21:58;;;;;;;5.65;4.05;;;25.80;47.40;;;;;;4210178;28;20041;-58
2021/08/15 00:24:01;;;;;;;6.40;4.32;;;25.90;47.40;;;;;;4206687;28;20108;-57
2021/08/15 00:26:03;;;;;;;6.32;3.88;;;25.90;47.30;;;;;;4200125;28;20051;-58
2021/08/15 00:28:05;;;;;;;5.80;3.60;;;25.80;47.40;;;;;;4210084;28;20436;-58
2021/08/15 00:30:08;;;;;;;8.75;3.60;;;25.80;47.30;;;;;;4213022;28;20044;-58
2021/08/15 00:32:11;;;;;;;4.93;3.40;;;25.80;47.40;;;;;;4214816;28;20055;-58
2021/08/15 00:34:13;;;;;;;5.35;3.53;;;25.80;47.40;;;;;;4213088;28;20071;-58
2021/08/15 00:36:15;;;;;;;5.88;3.50;;;25.80;47.40;;;;;;4210869;28;20055;-58
2021/08/15 00:38:17;;;;;;;4.70;3.70;;;25.80;47.40;;;;;;4214313;28;20037;-58
2021/08/15 00:40:19;;;;;;;7.22;3.67;;;25.80;47.40;;;;;;4212298;28;20075;-58
2021/08/15 00:42:21;;;;;;;6.78;4.50;;;25.80;47.50;;;;;;4211259;28;20048;-57
2021/08/15 00:44:23;;;;;;;8.20;4.18;;;25.80;47.50;;;;;;4194558;28;20073;-58
2021/08/15 00:46:25;;;;;;;11.82;5.00;;;25.80;47.50;;;;;;4198440;28;20072;-57
2021/08/15 00:48:27;;;;;;;5.97;4.18;;;25.70;47.60;;;;;;4212662;28;20392;-58
2021/08/15 00:50:29;;;;;;;5.80;3.65;;;25.70;47.50;;;;;;4207820;28;20056;-58
2021/08/15 00:52:31;;;;;;;5.55;3.40;;;25.70;47.60;;;;;;4200926;28;20048;-58
2021/08/15 00:54:34;;;;;;;6.35;3.35;;;25.70;47.60;;;;;;4212840;28;20063;-58
2021/08/15 00:56:36;;;;;;;7.00;4.20;;;25.70;47.60;;;;;;4214027;28;20044;-57
2021/08/15 00:58:41;;;;;;;4.80;3.60;;;25.70;47.60;;;;;;4213535;28;20052;-57
2021/08/15 01:00:43;;;;;;;6.68;4.32;;;25.70;47.70;;;;;;4209382;28;20055;-58
2021/08/15 01:02:50;;;;;;;7.07;3.70;;;25.70;47.80;;;;;;4216467;28;20079;-58
2021/08/15 01:04:52;;;;;;;6.30;4.25;;;25.70;47.90;;;;;;4218609;28;20075;-60
2021/08/15 01:06:55;;;;;;;10.25;3.78;;;25.70;47.90;;;;;;4217497;28;20040;-60
2021/08/15 01:08:57;;;;;;;5.28;3.83;;;25.70;48.00;;;;;;4217411;28;20041;-60
2021/08/15 01:11:04;;;;;;;8.32;3.83;;;25.70;48.10;;;;;;4215789;28;20045;-60
2021/08/15 01:13:06;;;;;;;7.13;4.18;;;25.70;48.10;;;;;;4215670;28;20048;-59
2021/08/15 01:15:10;;;;;;;7.40;3.85;;;25.70;48.20;;;;;;4218010;28;20059;-59
2021/08/15 01:17:12;;;;;;;7.03;4.78;;;25.70;48.20;;;;;;4218724;28;20049;-56
2021/08/15 01:19:14;;;;;;;5.65;3.90;;;25.70;48.30;;;;;;4216720;28;20053;-56
2021/08/15 01:21:16;;;;;;;4.90;3.70;;;25.70;48.30;;;;;;4218723;28;20052;-55
2021/08/15 01:23:18;;;;;;;7.50;3.63;;;25.70;48.30;;;;;;4218465;28;20048;-55
2021/08/15 01:25:20;;;;;;;5.63;3.80;;;25.70;48.30;;;;;;4218552;28;20045;-54
2021/08/15 01:27:23;;;;;;;4.75;3.15;;;25.70;48.30;;;;;;4201255;28;20414;-56
2021/08/15 01:29:27;;;;;;;7.47;3.42;;;25.70;48.30;;;;;;4215524;28;20041;-56
2021/08/15 01:31:29;;;;;;;6.57;3.08;;;25.60;48.30;;;;;;4184733;28;20045;-55
2021/08/15 01:33:33;;;;;;;6.00;3.70;;;25.70;48.40;;;;;;4201867;28;20056;-55
2021/08/15 01:35:35;;;;;;;5.35;3.70;;;25.70;48.40;;;;;;4206639;28;20051;-54
2021/08/15 01:37:37;;;;;;;9.52;3.85;;;25.60;48.30;;;;;;4218358;28;20048;-55
2021/08/15 01:39:43;;;;;;;6.95;3.80;;;25.70;48.40;;;;;;4216916;28;20044;-61
2021/08/15 01:41:45;;;;;;;7.45;4.32;;;25.60;48.40;;;;;;4215260;28;20048;-60
2021/08/15 01:43:48;;;;;;;7.72;3.65;;;25.70;48.40;;;;;;4210435;28;20044;-60
2021/08/15 01:45:51;;;;;;;8.45;3.50;;;25.60;48.40;;;;;;4216758;28;20040;-58
2021/08/15 01:47:53;;;;;;;5.45;3.35;;;25.60;48.50;;;;;;4214766;28;20074;-58
2021/08/15 01:49:55;;;;;;;4.63;3.92;;;25.60;48.50;;;;;;4213998;28;20048;-58
2021/08/15 01:51:57;;;;;;;5.88;2.90;;;25.70;48.50;;;;;;4218178;28;20076;-60
2021/08/15 01:54:02;;;;;;;4.13;3.20;;;25.60;48.60;;;;;;4218155;28;20054;-61
2021/08/15 01:56:04;;;;;;;9.02;4.20;;;25.60;48.50;;;;;;4217994;28;20116;-61
2021/08/15 01:58:08;;;;;;;6.60;3.75;;;25.60;48.60;;;;;;4218075;28;20048;-55
2021/08/15 02:00:10;;;;;;;7.22;3.45;;;25.60;48.60;;;;;;4216952;28;20067;-53
2021/08/15 02:02:12;;;;;;;8.23;4.13;;;25.60;48.70;;;;;;4215631;28;20112;-55
2021/08/15 02:04:17;;;;;;;5.68;3.33;;;25.60;48.70;;;;;;4217757;28;20067;-55
2021/08/15 02:06:19;;;;;;;9.57;4.07;;;25.60;48.80;;;;;;4218014;28;20044;-55
2021/08/15 02:08:21;;;;;;;8.23;3.97;;;25.60;48.80;;;;;;4218049;28;20049;-54
2021/08/15 02:10:25;;;;;;;9.40;4.13;;;25.60;48.80;;;;;;4216549;28;20103;-57
2021/08/15 02:12:27;;;;;;;4.18;3.00;;;25.60;48.90;;;;;;4211270;28;20112;-48
2021/08/15 02:14:29;;;;;;;6.47;4.05;;;25.60;49.00;;;;;;4213652;28;20051;-48
2021/08/15 02:16:31;;;;;;;13.52;4.13;;;25.60;49.00;;;;;;4216445;28;20048;-55
2021/08/15 02:18:33;;;;;;;6.18;3.85;;;25.60;49.20;;;;;;4217732;28;20060;-52
2021/08/15 02:20:37;;;;;;;8.70;3.70;;;25.50;49.10;;;;;;4217643;28;20507;-53
2021/08/15 02:22:39;;;;;;;9.15;3.80;;;25.50;49.20;;;;;;4217731;28;20059;-52
2021/08/15 02:24:41;;;;;;;8.32;3.92;;;25.50;49.30;;;;;;4206010;28;20049;-54
2021/08/15 02:26:43;;;;;;;9.63;3.78;;;25.50;49.30;;;;;;4210411;28;20071;-54
2021/08/15 02:28:45;;;;;;;5.43;3.95;;;25.50;49.40;;;;;;4217520;28;20041;-54
2021/08/15 02:30:47;;;;;;;13.27;4.40;;;25.40;49.40;;;;;;4217619;28;20044;-54
2021/08/15 02:32:50;;;;;;;6.60;3.50;;;25.40;49.50;;;;;;4206828;28;20045;-53
2021/08/15 02:34:52;;;;;;;5.70;4.03;;;25.40;49.50;;;;;;4207435;28;20047;-53
2021/08/15 02:36:54;;;;;;;5.95;3.72;;;25.40;49.60;;;;;;4217552;28;20051;-51
2021/08/15 02:38:56;;;;;;;8.32;4.20;;;25.40;49.60;;;;;;4217458;28;20044;-54
2021/08/15 02:40:58;;;;;;;5.53;3.97;;;25.40;49.60;;;;;;4217540;28;20045;-52
2021/08/15 02:43:00;;;;;;;6.85;3.67;;;25.40;49.70;;;;;;4216594;28;20045;-53
2021/08/15 02:45:04;;;;;;;8.10;4.15;;;25.40;49.70;;;;;;4200753;28;20052;-53
2021/08/15 02:47:06;;;;;;;4.40;3.80;;;25.40;49.80;;;;;;4200721;28;20045;-54
2021/08/15 02:49:08;;;;;;;11.10;4.00;;;25.40;49.80;;;;;;4200642;28;20045;-53
2021/08/15 02:51:10;;;;;;;6.78;4.82;;;25.40;49.80;;;;;;4200867;28;20045;-52
2021/08/15 02:53:12;;;;;;;6.32;3.70;;;25.40;49.90;;;;;;4200610;28;20053;-52
2021/08/15 02:55:14;;;;;;;7.40;3.50;;;25.40;49.90;;;;;;4200697;28;20401;-53
2021/08/15 02:57:16;;;;;;;6.47;3.72;;;25.40;50.00;;;;;;4203589;28;20098;-53
2021/08/15 02:59:18;;;;;;;5.78;3.97;;;25.40;50.00;;;;;;4216966;28;20116;-53
2021/08/15 03:01:20;;;;;;;6.30;3.63;;;25.40;50.00;;;;;;4216961;28;20053;-53
2021/08/15 03:03:23;;;;;;;6.00;3.78;;;25.40;50.10;;;;;;4216433;28;20079;-59
2021/08/15 03:05:25;;;;;;;5.28;3.85;;;25.40;50.10;;;;;;4215349;28;20075;-59
2021/08/15 03:07:27;;;;;;;6.70;3.78;;;25.40;50.00;;;;;;4214034;28;20048;-59
2021/08/15 03:09:29;;;;;;;6.38;3.92;;;25.40;50.00;;;;;;4212470;28;20044;-59
2021/08/15 03:11:31;;;;;;;6.72;3.83;;;25.40;50.00;;;;;;4213661;28;20383;-58
2021/08/15 03:13:33;;;;;;;5.72;3.75;;;25.40;50.10;;;;;;4215390;28;20044;-58
2021/08/15 03:15:37;;;;;;;8.02;4.18;;;25.40;50.00;;;;;;4213817;28;20044;-58
2021/08/15 03:17:40;;;;;;;5.95;4.05;;;25.50;50.00;;;;;;4213700;28;20045;-58
2021/08/15 03:19:42;;;;;;;6.85;4.15;;;25.50;50.00;;;;;;4214842;28;20049;-58
2021/08/15 03:21:44;;;;;;;5.85;4.18;;;25.40;50.00;;;;;;4200840;28;20055;-58
2021/08/15 03:23:46;;;;;;;9.38;4.13;;;25.40;50.00;;;;;;4209610;28;20049;-58
2021/08/15 03:25:48;;;;;;;10.88;4.93;;;25.40;50.00;;;;;;4213351;28;20062;-58
2021/08/15 03:27:50;;;;;;;5.13;4.18;;;25.40;50.00;;;;;;4197950;28;20041;-58
2021/08/15 03:29:53;;;;;;;8.07;4.30;;;25.50;50.00;;;;;;4213584;28;20060;-58
2021/08/15 03:31:55;;;;;;;4.45;4.00;;;25.40;50.00;;;;;;4213424;28;20103;-58
2021/08/15 03:33:57;;;;;;;7.75;4.45;;;25.40;50.00;;;;;;4214453;28;20114;-58
2021/08/15 03:35:59;;;;;;;8.10;5.18;;;25.40;50.00;;;;;;4213584;28;20056;-58
2021/08/15 03:38:01;;;;;;;7.53;6.38;;;25.40;50.10;;;;;;4213252;28;20551;-58
2021/08/15 03:40:04;;;;;;;6.45;4.28;;;25.50;50.00;;;;;;4213041;28;20044;-57
2021/08/15 03:42:06;;;;;;;7.60;4.63;;;25.40;50.10;;;;;;4214737;28;20051;-59
2021/08/15 03:44:08;;;;;;;14.48;4.47;;;25.40;50.20;;;;;;4198505;28;20045;-60
2021/08/15 03:46:10;;;;;;;10.15;5.10;;;25.40;50.20;;;;;;4209134;28;20433;-59
2021/08/15 03:48:12;;;;;;;5.15;4.45;;;25.40;50.30;;;;;;4214020;28;20040;-60
2021/08/15 03:50:14;;;;;;;5.03;3.58;;;25.40;50.30;;;;;;4214255;28;20074;-59
2021/08/15 03:52:16;;;;;;;6.50;4.32;;;25.40;50.30;;;;;;4211081;28;20048;-59
2021/08/15 03:54:20;;;;;;;8.07;4.45;;;25.40;50.30;;;;;;4212782;28;20041;-60
2021/08/15 03:56:22;;;;;;;8.05;4.57;;;25.30;50.40;;;;;;4214446;28;20056;-60
2021/08/15 03:58:24;;;;;;;9.00;3.95;;;25.40;50.30;;;;;;4202189;28;20049;-59
2021/08/15 04:00:26;;;;;;;7.32;4.30;;;25.40;50.40;;;;;;4207462;28;20087;-60
2021/08/15 04:02:28;;;;;;;6.35;4.43;;;25.40;50.40;;;;;;4214443;28;20052;-59
2021/08/15 04:04:31;;;;;;;6.88;4.32;;;25.30;50.40;;;;;;4202516;28;20045;-60
2021/08/15 04:06:34;;;;;;;8.32;4.55;;;25.40;50.40;;;;;;4211257;28;20048;-60
2021/08/15 04:08:36;;;;;;;7.35;4.32;;;25.30;50.50;;;;;;4211166;28;20049;-61
2021/08/15 04:10:38;;;;;;;5.53;4.00;;;25.40;50.50;;;;;;4199567;28;20051;-60
2021/08/15 04:12:40;;;;;;;6.32;4.18;;;25.30;50.50;;;;;;4213136;28;20051;-61
2021/08/15 04:14:42;;;;;;;6.75;3.75;;;25.30;50.50;;;;;;4213030;28;20574;-60
2021/08/15 04:16:45;;;;;;;5.72;4.35;;;25.40;50.60;;;;;;4212750;28;20055;-60
2021/08/15 04:18:47;;;;;;;4.82;3.70;;;25.30;50.60;;;;;;4197891;28;20053;-60
2021/08/15 04:20:49;;;;;;;6.55;3.83;;;25.30;50.60;;;;;;4211906;28;20071;-60
2021/08/15 04:22:51;;;;;;;7.18;3.95;;;25.30;50.70;;;;;;4208680;28;20045;-60
2021/08/15 04:24:53;;;;;;;6.38;4.00;;;25.40;50.60;;;;;;4214135;28;20075;-60
2021/08/15 04:26:55;;;;;;;7.72;4.93;;;25.40;50.60;;;;;;4213293;28;20048;-59
2021/08/15 04:28:57;;;;;;;22.30;4.60;;;25.40;50.60;;;;;;4212631;28;20476;-59
2021/08/15 04:30:59;;;;;;;9.20;4.28;;;25.40;50.80;;;;;;4213259;28;20044;-59
2021/08/15 04:33:01;;;;;;;6.80;3.60;;;25.40;50.70;;;;;;4197530;28;20052;-57
2021/08/15 04:35:05;;;;;;;5.60;3.60;;;25.40;50.80;;;;;;4212835;28;20146;-58
2021/08/15 04:37:08;;;;;;;7.65;4.30;;;25.40;50.80;;;;;;4212633;28;20045;-58
2021/08/15 04:39:10;;;;;;;5.50;4.18;;;25.40;50.90;;;;;;4213832;28;20131;-58
2021/08/15 04:41:12;;;;;;;4.85;3.65;;;25.40;50.90;;;;;;4199988;28;20053;-58
2021/08/15 04:43:14;;;;;;;6.45;3.88;;;25.40;50.90;;;;;;4204997;28;20049;-58
2021/08/15 04:45:16;;;;;;;6.57;3.75;;;25.40;51.00;;;;;;4212403;28;20037;-57
2021/08/15 04:47:18;;;;;;;7.68;3.90;;;25.40;51.00;;;;;;4214238;28;20049;-58
2021/08/15 04:49:20;;;;;;;5.25;3.55;;;25.40;51.00;;;;;;4212814;28;20062;-58
2021/08/15 04:51:22;;;;;;;6.93;3.50;;;25.40;51.00;;;;;;4211175;28;20036;-58
2021/08/15 04:53:26;;;;;;;6.45;3.47;;;25.40;51.00;;;;;;4213109;28;20048;-58
2021/08/15 04:55:28;;;;;;;8.60;3.90;;;25.40;51.00;;;;;;4214434;28;20130;-55
2021/08/15 04:57:30;;;;;;;4.80;3.85;;;25.50;51.00;;;;;;4215682;28;20293;-56
2021/08/15 04:59:32;;;;;;;7.55;3.92;;;25.40;51.00;;;;;;4215597;28;20053;-55
2021/08/15 05:01:34;;;;;;;5.57;4.00;;;25.50;51.10;;;;;;4215617;28;20045;-53
2021/08/15 05:03:40;;;;;;;6.57;3.60;;;25.50;51.10;;;;;;4199007;28;20072;-54
2021/08/15 05:05:42;;;;;;;7.18;3.47;;;25.40;51.10;;;;;;4211141;28;20045;-54
2021/08/15 05:07:44;;;;;;;4.57;3.30;;;25.50;51.10;;;;;;4215666;28;20041;-52
2021/08/15 05:09:46;;;;;;;7.15;3.85;;;25.50;51.10;;;;;;4215729;28;20052;-54
2021/08/15 05:11:48;;;;;;;5.45;3.60;;;25.50;51.00;;;;;;4215562;28;20045;-54
2021/08/15 05:13:50;;;;;;;4.32;2.83;;;25.50;51.10;;;;;;4215375;28;20055;-60
2021/08/15 05:15:52;;;;;;;3.65;3.22;;;25.50;51.20;;;;;;4213537;28;20048;-60
2021/08/15 05:17:54;;;;;;;7.13;3.47;;;25.60;51.20;;;;;;4198236;28;20103;-59
2021/08/15 05:19:56;;;;;;;5.35;3.83;;;25.50;51.20;;;;;;4208496;28;20055;-60
2021/08/15 05:21:59;;;;;;;19.58;3.78;;;25.50;51.30;;;;;;4211084;28;20048;-59
2021/08/15 05:24:01;;;;;;;16.90;3.67;;;25.50;51.90;;;;;;4198501;28;20048;-59
2021/08/15 05:26:03;;;;;;;16.58;3.60;;;25.60;51.40;;;;;;4213690;28;20059;-59
2021/08/15 05:28:05;;;;;;;11.32;3.78;;;25.60;51.60;;;;;;4214946;28;20051;-60
2021/08/15 05:30:08;;;;;;;6.65;3.78;;;25.60;51.50;;;;;;4213512;28;20040;-59
2021/08/15 05:32:10;;;;;;;5.20;3.20;;;25.60;51.50;;;;;;4213979;28;20044;-59
2021/08/15 05:34:12;;;;;;;4.97;3.60;;;25.60;51.50;;;;;;4205501;28;20115;-59
2021/08/15 05:36:14;;;;;;;7.07;3.10;;;25.60;51.50;;;;;;4209025;28;20040;-59
2021/08/15 05:38:16;;;;;;;4.00;2.85;;;25.60;51.40;;;;;;4213570;28;20044;-60
2021/08/15 05:40:18;;;;;;;5.78;3.50;;;25.60;51.40;;;;;;4212272;28;20049;-59
2021/08/15 05:42:20;;;;;;;7.60;2.80;;;25.60;51.40;;;;;;4210849;28;20047;-59
2021/08/15 05:44:22;;;;;;;3.22;2.70;;;25.60;51.40;;;;;;4213181;28;20045;-60
2021/08/15 05:46:24;;;;;;;6.20;2.75;;;25.60;51.40;;;;;;4218336;28;20047;-60
2021/08/15 05:48:27;;;;;;;4.18;2.63;;;25.70;51.40;;;;;;4217962;28;20079;-58
2021/08/15 05:50:28;;;;;;;7.22;2.95;;;25.70;51.30;;;;;;4213878;28;20051;-58
2021/08/15 05:52:31;;;;;;;4.55;2.85;;;25.70;51.20;;;;;;4200841;28;20133;-57
2021/08/15 05:54:33;;;;;;;3.72;2.72;;;25.70;51.30;;;;;;4186713;28;20061;-57
2021/08/15 05:56:36;;;;;;;4.65;2.60;;;25.70;51.10;;;;;;4209580;28;20044;-58
2021/08/15 05:58:38;;;;;;;9.00;2.60;;;25.70;51.20;;;;;;4215084;28;20059;-58
2021/08/15 06:00:40;;;;;;;4.45;3.00;;;25.70;51.10;;;;;;4216429;28;20056;-58
2021/08/15 06:02:43;;;;;;;4.57;2.22;;;25.70;51.00;;;;;;4206595;28;20076;-57
2021/08/15 06:04:45;;;;;;;2.97;2.00;;;25.70;51.00;;;;;;4206547;28;20110;-58
2021/08/15 06:06:48;;;;;;;3.33;2.08;;;25.80;51.00;;;;;;4216004;28;20049;-56
2021/08/15 06:08:49;;;;;;;11.05;4.53;;;25.70;51.10;;;;;;4215130;28;20113;-56
2021/08/15 06:10:55;;;;;;;4.47;2.50;;;25.70;51.40;;;;;;4214543;28;20036;-56
2021/08/15 06:12:57;;;;;;;13.48;5.32;;;25.80;51.00;;;;;;4206382;28;20045;-56
2021/08/15 06:15:06;;;;;;;12.77;3.20;;;25.80;52.60;;;;;;4211368;28;20049;-60
2021/08/15 06:17:09;;;;;;;9.50;3.35;;;25.70;51.20;;;;;;4203619;28;20056;-60
2021/08/15 06:19:11;;;;;;;18.42;6.32;;;25.70;51.10;;;;;;4210040;28;20070;-61
2021/08/15 06:21:13;;;;;;;10.68;3.42;;;25.80;52.30;;;;;;4216996;28;20044;-56
2021/08/15 06:23:15;;;;;;;5.78;3.75;;;25.80;50.80;;;;;;4217501;28;20045;-55
2021/08/15 06:25:17;;;;;;;9.13;4.63;;;25.80;50.70;;;;;;4217239;28;20044;-57
2021/08/15 06:27:19;;;;;;;18.48;9.00;;;25.80;51.20;;;;;;4217723;28;20548;-57
2021/08/15 06:29:21;;;;;;;26.70;13.38;;;25.80;51.50;;;;;;4217560;28;20051;-57
2021/08/15 06:31:24;;;;;;;36.80;20.83;;;25.80;51.90;;;;;;4217497;28;20044;-57
2021/08/15 06:33:26;;;;;;;34.22;16.70;;;25.80;51.80;;;;;;4217665;28;20132;-58
2021/08/15 06:35:28;;;;;;;16.25;11.77;;;25.80;52.80;;;;;;4215452;28;20114;-58
2021/08/15 06:37:30;;;;;;;22.67;13.27;;;25.80;52.10;;;;;;4217438;28;20102;-57
2021/08/15 06:39:32;;;;;;;21.67;12.27;;;25.80;52.10;;;;;;4217609;28;20044;-58
2021/08/15 06:41:34;;;;;;;29.38;17.25;;;25.80;52.70;;;;;;4217458;28;20051;-58
2021/08/15 06:43:36;;;;;;;17.50;11.30;;;25.90;53.60;;;;;;4217030;28;20128;-58
2021/08/15 06:45:39;;;;;;;19.77;12.23;;;25.80;52.50;;;;;;4216868;28;20075;-58
2021/08/15 06:47:41;;;;;;;14.63;10.02;;;25.80;52.70;;;;;;4211847;28;20050;-67
2021/08/15 06:49:43;;;;;;;15.30;9.85;;;25.90;52.40;;;;;;4200668;28;20053;-58
2021/08/15 06:51:47;;;;;;;18.52;11.80;;;25.80;52.30;;;;;;4200688;28;20041;-57
2021/08/15 06:53:49;;;;;;;27.20;18.38;;;25.80;52.70;;;;;;4200603;28;20393;-56
2021/08/15 06:55:51;;;;;;;27.75;19.13;;;25.80;52.90;;;;;;4182792;28;20049;-54
2021/08/15 06:57:53;;;;;;;17.13;11.27;;;25.80;52.50;;;;;;4200466;28;20056;-54
2021/08/15 06:59:55;;;;;;;14.93;10.55;;;25.80;51.50;;;;;;4216947;28;20052;-54
2021/08/15 07:01:57;;;;;;;18.40;13.20;;;25.80;51.40;;;;;;4214929;28;20071;-57
2021/08/15 07:03:59;;;;;;;16.98;10.68;;;25.90;51.50;;;;;;4214393;28;20068;-58
2021/08/15 07:06:01;;;;;;;25.50;17.20;;;25.80;51.30;;;;;;4199030;28;20104;-58
2021/08/15 07:08:03;;;;;;;19.83;15.95;;;25.90;52.00;;;;;;4182228;28;20073;-58
2021/08/15 07:10:07;;;;;;;26.63;12.98;;;25.90;51.60;;;;;;4207903;28;20040;-58
2021/08/15 07:12:09;;;;;;;25.83;16.67;;;25.90;51.60;;;;;;4201930;28;20104;-58
2021/08/15 07:14:11;;;;;;;27.55;19.27;;;25.90;52.30;;;;;;4199699;28;20049;-58
2021/08/15 07:16:13;;;;;;;24.75;16.08;;;25.90;52.20;;;;;;4209221;28;20037;-58
2021/08/15 07:18:16;;;;;;;21.98;13.20;;;25.90;52.40;;;;;;4212804;28;20080;-58
2021/08/15 07:20:18;;;;;;;16.40;12.40;;;25.90;51.70;;;;;;4215122;28;20104;-58
2021/08/15 07:22:20;;;;;;;15.23;11.05;;;25.80;51.40;;;;;;4213559;28;20040;-58
2021/08/15 07:24:22;;;;;;;17.67;11.70;;;25.90;50.80;;;;;;4213478;28;20105;-58
2021/08/15 07:26:24;;;;;;;23.05;13.27;;;25.90;51.30;;;;;;4214396;28;20686;-58
2021/08/15 07:28:26;;;;;;;12.77;10.15;;;25.90;51.60;;;;;;4213891;28;20089;-59
2021/08/15 07:30:29;;;;;;;15.48;10.48;;;25.80;51.00;;;;;;4213374;28;20048;-58
2021/08/15 07:32:32;;;;;;;15.18;11.52;;;25.90;50.80;;;;;;4213440;28;20079;-58
2021/08/15 07:34:34;;;;;;;13.85;10.50;;;25.90;51.80;;;;;;4215975;28;20059;-48
2021/08/15 07:36:36;;;;;;;16.42;11.55;;;25.90;51.10;;;;;;4203016;28;20405;-48
2021/08/15 07:38:38;;;;;;;13.50;9.20;;;25.90;51.20;;;;;;4211393;28;20078;-48
2021/08/15 07:40:40;;;;;;;12.13;10.02;;;25.90;50.90;;;;;;4214747;28;20045;-48
2021/08/15 07:42:42;;;;;;;14.88;9.95;;;25.90;51.00;;;;;;4214397;28;20063;-47
2021/08/15 07:44:44;;;;;;;15.75;9.95;;;25.90;50.80;;;;;;4215899;28;20122;-47
2021/08/15 07:46:46;;;;;;;13.45;10.27;;;25.90;51.10;;;;;;4213566;28;20526;-47
2021/08/15 07:48:48;;;;;;;12.15;9.55;;;25.90;51.20;;;;;;4216173;28;20045;-49
2021/08/15 07:50:51;;;;;;;13.07;9.82;;;25.90;51.00;;;;;;4216243;28;20071;-47
2021/08/15 07:52:53;;;;;;;10.85;8.70;;;25.90;51.10;;;;;;4216032;28;20044;-47
2021/08/15 07:54:56;;;;;;;11.55;8.05;;;25.90;51.00;;;;;;4215904;28;20104;-48
2021/08/15 07:56:58;;;;;;;12.35;8.65;;;25.80;50.70;;;;;;4199586;28;20059;-51
2021/08/15 07:59:00;;;;;;;8.05;5.97;;;25.80;50.20;;;;;;4214139;28;20071;-50
2021/08/15 08:01:07;;;;;;;9.30;7.22;;;25.90;50.00;;;;;;4199158;28;20071;-47
2021/08/15 08:03:09;;;;;;;8.18;7.35;;;25.90;49.90;;;;;;4199367;28;20055;-49
2021/08/15 08:05:12;;;;;;;9.68;6.40;;;25.80;50.00;;;;;;4184232;28;20046;-55
2021/08/15 08:07:14;;;;;;;12.52;7.00;;;25.80;49.80;;;;;;4192057;28;20044;-58
2021/08/15 08:09:16;;;;;;;10.00;6.13;;;25.90;50.80;;;;;;4193782;28;20053;-58
2021/08/15 08:11:20;;;;;;;12.00;6.95;;;25.90;50.40;;;;;;4181846;28;20048;-60
2021/08/15 08:13:23;;;;;;;10.60;5.93;;;25.90;50.00;;;;;;4184141;28;20052;-54
2021/08/15 08:15:25;;;;;;;7.80;6.07;;;25.90;50.00;;;;;;4182914;28;20049;-55
2021/08/15 08:17:27;;;;;;;11.07;6.50;;;25.90;50.30;;;;;;4182957;28;20049;-58
2021/08/15 08:19:29;;;;;;;11.50;7.13;;;25.90;50.00;;;;;;4182814;28;20490;-59
2021/08/15 08:21:31;;;;;;;18.55;7.30;;;25.90;51.30;;;;;;4182718;28;20130;-57
2021/08/15 08:23:34;;;;;;;11.48;6.78;;;25.90;51.70;;;;;;4182792;28;20056;-56
2021/08/15 08:25:36;;;;;;;13.15;6.75;;;25.90;51.50;;;;;;4182824;28;20041;-57
2021/08/15 08:27:38;;;;;;;12.55;6.60;;;25.90;51.60;;;;;;4165568;28;20078;-57
2021/08/15 08:29:40;;;;;;;14.30;7.07;;;25.90;51.20;;;;;;4182984;28;20105;-57
2021/08/15 08:31:42;;;;;;;16.15;6.63;;;25.90;51.10;;;;;;4182840;28;20101;-58
2021/08/15 08:33:44;;;;;;;12.80;6.22;;;25.90;50.90;;;;;;4182645;28;20077;-57
2021/08/15 08:35:46;;;;;;;9.95;6.20;;;25.90;51.00;;;;;;4182630;28;20055;-57
2021/08/15 08:37:48;;;;;;;11.73;6.05;;;25.90;50.90;;;;;;4182705;28;20049;-58
2021/08/15 08:39:52;;;;;;;10.30;5.88;;;25.90;50.70;;;;;;4182471;28;20413;-61
2021/08/15 08:41:54;;;;;;;18.80;6.53;;;26.00;50.10;;;;;;4195498;28;20214;-65
2021/08/15 08:43:56;;;;;;;11.20;6.28;;;25.90;50.70;;;;;;4183004;28;20049;-61
2021/08/15 08:45:59;;;;;;;12.18;5.85;;;26.00;50.60;;;;;;4184657;28;20379;-62
2021/08/15 08:48:03;;;;;;;10.65;5.60;;;26.00;50.70;;;;;;4197239;28;20037;-62
2021/08/15 08:50:05;;;;;;;9.77;5.65;;;25.90;49.70;;;;;;4194743;28;20051;-48
2021/08/15 08:52:08;;;;;;;15.27;5.53;;;25.90;49.70;;;;;;4198496;28;20048;-46
2021/08/15 08:54:11;;;;;;;12.30;5.68;;;26.00;49.90;;;;;;4196648;28;20044;-48
2021/08/15 08:56:13;;;;;;;8.57;5.38;;;26.00;50.20;;;;;;4197801;28;20041;-52
2021/08/15 08:58:15;;;;;;;7.80;4.90;;;25.90;50.60;;;;;;4198813;28;20466;-49
2021/08/15 09:00:18;;;;;;;8.90;6.00;;;26.00;49.90;;;;;;4210355;28;20074;-52
2021/08/15 09:02:20;;;;;;;12.13;5.90;;;26.00;49.90;;;;;;4215446;28;20108;-51
2021/08/15 09:04:23;;;;;;;9.45;5.18;;;26.00;50.50;;;;;;4215045;28;20364;-50
2021/08/15 09:06:28;;;;;;;10.02;4.97;;;26.10;50.30;;;;;;4213389;28;20048;-50
2021/08/15 09:08:32;;;;;;;;;;;26.10;49.60;;;;;;4209501;28;20221;-52
2021/08/15 09:10:38;;;;;;;7.18;5.25;;;26.10;49.70;;;;;;4195841;28;20157;-50
2021/08/15 09:12:45;;;;;;;6.05;4.47;;;26.10;50.30;;;;;;4194586;28;20605;-51
2021/08/15 09:15:04;;;;;;;15.60;6.30;;;26.10;50.30;;;;;;4214706;28;20102;-48
2021/08/15 09:17:08;;;;;;;10.00;5.28;;;26.10;50.40;;;;;;4197948;28;20113;-48
2021/08/15 09:19:47;;;;;;;8.35;4.65;;;26.10;50.10;;;;;;4213067;28;20071;-58
2021/08/15 09:21:49;;;;;;;9.68;5.20;;;26.00;49.70;;;;;;4201997;28;20044;-48
2021/08/15 09:24:00;;;;;;;7.43;4.85;;;26.00;50.30;;;;;;4202388;28;20041;-56
2021/08/15 09:26:17;;;;;;;12.10;5.18;;;26.10;50.10;;;;;;4201859;28;20068;-56
2021/08/15 09:28:32;;;;;;;12.57;5.70;;;26.10;49.80;;;;;;4201127;28;20075;-56
2021/08/15 09:30:34;;;;;;;;;;;26.10;49.60;;;;;;4216278;28;20044;-54
2021/08/15 09:32:45;;;;;;;11.45;5.20;;;26.00;50.00;;;;;;4214252;28;19920;-59
2021/08/15 09:34:56;;;;;;;6.75;5.20;;;26.10;50.00;;;;;;4191329;28;20109;-58
2021/08/15 09:37:01;;;;;;;15.60;5.20;;;26.10;49.90;;;;;;4207029;28;20044;-60
2021/08/15 09:39:05;;;;;;;10.30;5.20;;;26.00;49.70;;;;;;4217747;28;20040;-47
2021/08/15 09:41:22;;;;;;;19.70;5.10;;;26.10;50.10;;;;;;4214327;28;20044;-54
2021/08/15 09:43:27;;;;;;;9.00;4.53;;;26.10;50.70;;;;;;4201020;28;20041;-59
2021/08/15 09:45:36;;;;;;;;;;;26.10;50.30;;;;;;4201804;28;20452;-59
2021/08/15 09:47:38;;;;;;;11.75;4.65;;;26.10;49.90;;;;;;4199916;28;19920;-64
2021/08/15 09:49:46;;;;;;;12.75;5.07;;;26.10;50.00;;;;;;4201389;28;20055;-67
2021/08/15 09:51:48;;;;;;;14.23;4.93;;;26.20;50.10;;;;;;4212772;28;20051;-64
2021/08/15 09:53:53;;;;;;;16.40;5.35;;;26.20;50.10;;;;;;4217676;28;20072;-65
2021/08/15 09:55:57;;;;;;;21.73;5.85;;;26.20;50.30;;;;;;4217545;28;20086;-61
2021/08/15 09:58:16;;;;;;;23.83;6.00;;;26.20;50.80;;;;;;4206747;28;20045;-62
2021/08/15 10:00:38;;;;;;;14.82;5.28;;;26.20;50.90;;;;;;4209110;28;20048;-58
2021/08/15 10:02:41;;;;;;;22.15;5.90;;;26.20;50.70;;;;;;4195399;28;20045;-62
2021/08/15 10:04:44;;;;;;;17.50;5.53;;;26.20;51.40;;;;;;4200599;28;20049;-60
2021/08/15 10:06:49;;;;;;;23.33;7.90;;;26.20;51.30;;;;;;4212733;28;20539;-60
2021/08/15 10:08:51;;;;;;;15.18;5.47;;;26.20;51.20;;;;;;4215556;28;20502;-58
2021/08/15 10:10:54;;;;;;;14.82;5.35;;;26.20;51.10;;;;;;4214885;28;20056;-58
2021/08/15 10:13:12;;;;;;;16.40;5.35;;;26.20;50.80;;;;;;4165155;28;20042;-59
2021/08/15 10:15:40;;;;;;;16.10;5.40;;;26.20;51.10;;;;;;4197366;28;20053;-65
2021/08/15 10:17:52;;;;;;;16.58;5.38;;;26.20;50.90;;;;;;4184872;28;20072;-57
2021/08/15 10:20:10;;;;;;;12.32;5.65;;;26.10;51.10;;;;;;4183239;28;20080;-58
2021/08/15 10:22:27;;;;;;;15.10;6.10;;;26.10;50.90;;;;;;4171642;28;20101;-64
2021/08/15 10:24:48;;;;;;;16.05;5.68;;;26.10;50.80;;;;;;4197724;28;20049;-65
2021/08/15 10:26:56;;;;;;;13.93;5.22;;;26.10;50.70;;;;;;4183850;28;20045;-63
2021/08/15 10:28:59;;;;;;;15.45;6.15;;;26.20;51.00;;;;;;4184962;28;20072;-56
2021/08/15 10:31:04;;;;;;;14.40;5.82;;;26.10;50.60;;;;;;4204292;28;20112;-56
2021/08/15 10:33:13;;;;;;;13.23;5.10;;;26.10;50.70;;;;;;4197744;28;20071;-57
2021/08/15 10:35:16;;;;;;;8.63;4.70;;;26.10;50.10;;;;;;4215449;28;20135;-56
2021/08/15 10:37:25;;;;;;;11.50;5.90;;;26.10;50.30;;;;;;4214150;28;20037;-56
2021/08/15 10:39:38;;;;;;;8.20;5.05;;;26.10;50.40;;;;;;4215093;28;20049;-57